Time;durP1;ratioP1;P1;durP2;ratioP2;P2;SDS_P1;SDS_P2;PMS_P1;PMS_P2;Temp;Humidity;BMP_temperature;BMP_pressure;BME280_temperature;BME280_humidity;BME280_pressure;Samples;Min_cycle;Max_cycle;Signal;HPM_P1;HPM_P2
2022/01/23 00:00:26;;;;;;;42.15;37.75;;;;;;;3.64;100.00;103599.69;5230710;28;20420;-60
2022/01/23 00:03:00;;;;;;;43.15;38.80;;;;;;;3.83;100.00;103634.38;5230232;28;20352;-60
2022/01/23 00:05:35;;;;;;;41.30;37.40;;;;;;;3.83;100.00;103634.38;5230300;28;20029;-60
2022/01/23 00:08:06;;;;;;;41.92;37.83;;;;;;;3.78;100.00;103623.28;5230243;28;20123;-60
2022/01/23 00:10:36;;;;;;;42.30;38.42;;;;;;;3.81;100.00;103633.69;5230574;28;20115;-60
2022/01/23 00:13:17;;;;;;;39.67;35.75;;;;;;;3.82;100.00;103629.19;5230234;28;20043;-60
2022/01/23 00:18:37;;;;;;;43.38;39.15;;;;;;;3.79;100.00;103624.97;5248165;28;20033;-60
2022/01/23 00:21:08;;;;;;;41.97;38.25;;;;;;;3.80;100.00;103633.81;5229919;28;20033;-59
2022/01/23 00:31:47;;;;;;;43.83;39.72;;;;;;;3.78;100.00;103630.44;5247728;28;20040;-60
2022/01/23 00:34:48;;;;;;;44.90;39.70;;;;;;;3.75;100.00;103620.91;5229593;28;20040;-60
2022/01/23 00:37:19;;;;;;;40.38;36.28;;;;;;;3.74;100.00;103619.22;5229853;28;20025;-60
2022/01/23 00:39:49;;;;;;;34.50;31.45;;;;;;;3.72;100.00;103619.38;5229764;28;20063;-60
2022/01/23 00:42:20;;;;;;;38.30;34.97;;;;;;;3.70;100.00;103613.34;5229716;28;20029;-57
2022/01/23 00:44:57;;;;;;;42.67;38.58;;;;;;;3.65;100.00;103604.91;5229101;28;20036;-56
2022/01/23 00:47:28;;;;;;;46.28;41.85;;;;;;;3.57;100.00;103596.75;5229427;28;20063;-58
2022/01/23 00:49:58;;;;;;;42.42;38.58;;;;;;;3.73;100.00;103613.03;5228995;28;20071;-56
2022/01/23 00:52:29;;;;;;;41.50;37.42;;;;;;;3.75;100.00;103609.38;5246434;28;20078;-57
2022/01/23 00:55:00;;;;;;;42.80;38.33;;;;;;;3.73;100.00;103612.19;5228845;28;20515;-60
2022/01/23 00:57:33;;;;;;;43.28;39.05;;;;;;;3.69;100.00;103614.31;5229040;28;20048;-56
2022/01/23 01:00:05;;;;;;;43.80;39.40;;;;;;;3.70;100.00;103616.00;5228948;28;20597;-56
2022/01/23 01:02:36;;;;;;;40.72;36.30;;;;;;;3.62;100.00;103594.50;5228610;28;20131;-61
2022/01/23 01:05:07;;;;;;;39.40;36.13;;;;;;;3.67;100.00;103602.91;5228814;28;20047;-59
2022/01/23 01:07:38;;;;;;;45.00;39.70;;;;;;;3.70;100.00;103612.47;5228784;28;20123;-59
2022/01/23 01:10:16;;;;;;;44.75;40.70;;;;;;;3.69;100.00;103600.94;5228681;28;20037;-60
2022/01/23 01:12:49;;;;;;;50.80;39.33;;;;;;;3.69;100.00;103600.09;5228587;28;20036;-59
2022/01/23 01:15:30;;;;;;;42.65;38.55;;;;;;;3.70;100.00;103601.78;5228468;28;20040;-58
2022/01/23 01:32:12;;;;;;;43.38;39.13;;;;;;;3.66;100.00;103582.53;5246224;28;20031;-59
2022/01/23 01:34:49;;;;;;;42.70;38.42;;;;;;;3.65;100.00;103574.66;5228237;28;20036;-60
2022/01/23 01:37:20;;;;;;;47.97;42.95;;;;;;;3.63;100.00;103576.63;5228360;28;20040;-61
2022/01/23 01:39:51;;;;;;;42.30;38.45;;;;;;;3.61;100.00;103574.09;5246081;28;20036;-59
2022/01/23 01:42:21;;;;;;;42.45;38.65;;;;;;;3.61;100.00;103581.28;5228223;28;20304;-60
2022/01/23 01:44:52;;;;;;;43.80;39.53;;;;;;;3.60;100.00;103571.56;5227888;28;20089;-59
2022/01/23 01:47:22;;;;;;;44.08;39.58;;;;;;;3.58;100.00;103571.72;5228225;28;20033;-61
2022/01/23 01:49:52;;;;;;;41.22;37.40;;;;;;;3.62;100.00;103577.63;5228008;28;20558;-60
2022/01/23 01:52:23;;;;;;;44.60;39.95;;;;;;;3.63;100.00;103579.28;5227810;28;20036;-60
2022/01/23 01:55:01;;;;;;;46.25;41.58;;;;;;;3.64;100.00;103583.66;5227859;28;20040;-59
2022/01/23 01:57:39;;;;;;;45.35;40.83;;;;;;;3.65;100.00;103578.16;5228094;28;20032;-61
2022/01/23 02:00:14;;;;;;;50.80;39.03;;;;;;;3.65;100.00;103588.03;5228118;28;20040;-59
2022/01/23 02:11:03;;;;;;;40.13;36.53;;;;;;;3.57;100.00;103598.56;5245949;28;20377;-55
2022/01/23 02:13:40;;;;;;;42.03;38.45;;;;;;;3.56;100.00;103599.56;5227759;28;20055;-60
2022/01/23 02:53:19;;;;;;;40.97;37.20;;;;;;;3.60;100.00;103576.91;5226030;28;20395;-62
2022/01/23 02:55:47;;;;;;;41.03;37.03;;;;;;;3.64;100.00;103597.88;5225418;28;20028;-61
2022/01/23 02:58:20;;;;;;;40.85;36.55;;;;;;;3.62;100.00;103585.63;5208300;28;20036;-61
2022/01/23 03:01:10;;;;;;;43.38;38.72;;;;;;;3.60;100.00;103577.75;5208129;28;20467;-62
2022/01/23 03:03:44;;;;;;;47.15;42.22;;;;;;;3.58;100.00;103570.88;5208063;28;20044;-62
2022/01/23 03:06:49;;;;;;;46.28;41.83;;;;;;;3.53;100.00;103568.63;5208429;28;20108;-62
2022/01/23 03:14:45;;;;;;;34.90;31.43;;;;;;;3.56;100.00;103546.13;5225879;28;20041;-62
2022/01/23 03:26:08;;;;;;;42.70;38.92;;;;;;;3.60;100.00;103563.56;5229855;28;20448;-62
2022/01/23 03:28:49;;;;;;;45.53;41.05;;;;;;;3.58;100.00;103565.53;5229217;28;20059;-62
2022/01/23 03:33:52;;;;;;;42.40;38.05;;;;;;;3.59;100.00;103561.88;5229002;28;20086;-62
2022/01/23 03:36:22;;;;;;;46.83;41.92;;;;;;;3.58;100.00;103565.53;5211744;28;20057;-62
2022/01/23 03:38:52;;;;;;;42.83;38.67;;;;;;;3.57;100.00;103563.84;5211660;28;20075;-62
2022/01/23 03:41:23;;;;;;;44.53;40.63;;;;;;;3.56;100.00;103564.81;5211342;28;20094;-61
2022/01/23 03:43:53;;;;;;;46.70;41.67;;;;;;;3.54;100.00;103572.97;5211269;28;20068;-62
2022/01/23 03:49:31;;;;;;;44.08;39.53;;;;;;;3.54;100.00;103567.63;5229786;28;20416;-62
2022/01/23 03:52:04;;;;;;;47.78;42.83;;;;;;;3.54;100.00;103575.66;5210976;28;20497;-61
2022/01/23 03:54:35;;;;;;;45.58;41.08;;;;;;;3.54;100.00;103575.66;5210984;28;20043;-61
2022/01/23 03:57:06;;;;;;;46.10;41.22;;;;;;;3.53;100.00;103578.47;5211269;28;20171;-62
2022/01/23 03:59:37;;;;;;;47.33;42.45;;;;;;;3.52;100.00;103576.78;5227914;28;20060;-63
2022/01/23 04:02:08;;;;;;;42.97;38.80;;;;;;;3.50;100.00;103574.25;5211173;28;20148;-62
2022/01/23 04:04:40;;;;;;;46.20;42.00;;;;;;;3.51;100.00;103578.59;5210597;28;20033;-62
2022/01/23 04:07:19;;;;;;;43.50;39.30;;;;;;;3.51;100.00;103589.28;5210738;28;20054;-62
2022/01/23 04:09:50;;;;;;;47.67;40.47;;;;;;;3.50;100.00;103581.41;5210438;28;20033;-62
2022/01/23 04:45:56;;;;;;;47.25;42.40;;;;;;;3.55;100.00;103598.72;5227952;28;20493;-62
2022/01/23 04:59:45;;;;;;;43.78;39.67;;;;;;;3.43;100.00;103572.31;5227598;28;20040;-62
2022/01/23 05:05:07;;;;;;;43.55;39.25;;;;;;;3.53;100.00;103595.34;5227668;28;20021;-61
2022/01/23 05:07:40;;;;;;;46.47;40.60;;;;;;;3.52;100.00;103595.47;5209735;28;20033;-62
2022/01/23 05:10:10;;;;;;;45.83;41.63;;;;;;;3.59;100.00;103602.78;5209880;28;20094;-62
2022/01/23 05:12:42;;;;;;;46.00;41.92;;;;;;;3.60;100.00;103592.94;5209755;28;20531;-61
2022/01/23 05:15:13;;;;;;;44.60;40.03;;;;;;;3.56;100.00;103596.88;5209407;28;20029;-62
2022/01/23 05:17:44;;;;;;;46.47;41.80;;;;;;;3.57;100.00;103598.56;5209240;28;20136;-62
2022/01/23 05:20:16;;;;;;;46.10;41.08;;;;;;;3.52;100.00;103595.47;5209170;28;20081;-60
2022/01/23 05:22:50;;;;;;;44.53;40.13;;;;;;;3.58;100.00;103598.44;5209204;28;20033;-62
2022/01/23 05:25:25;;;;;;;44.97;40.55;;;;;;;3.54;100.00;103585.50;5208586;28;20132;-62
2022/01/23 05:27:56;;;;;;;49.17;44.45;;;;;;;3.61;100.00;103591.97;5208875;28;20070;-62
2022/01/23 05:30:26;;;;;;;47.95;40.40;;;;;;;3.55;100.00;103580.00;5208545;28;20029;-61
2022/01/23 05:32:58;;;;;;;47.17;42.30;;;;;;;3.57;100.00;103583.38;5225242;28;20452;-61
2022/01/23 05:35:30;;;;;;;48.92;44.13;;;;;;;3.62;100.00;103589.16;5208631;28;20465;-62
2022/01/23 05:38:01;;;;;;;47.72;42.72;;;;;;;3.63;100.00;103585.50;5208229;28;20037;-62
2022/01/23 05:40:31;;;;;;;46.28;41.90;;;;;;;3.63;100.00;103589.97;5208685;28;20035;-65
2022/01/23 05:43:02;;;;;;;48.30;43.33;;;;;;;3.50;100.00;103563.56;5208601;28;20111;-61
2022/01/23 05:45:34;;;;;;;45.53;40.97;;;;;;;3.59;100.00;103584.09;5225246;28;20459;-61
2022/01/23 05:48:05;;;;;;;44.40;40.42;;;;;;;3.51;100.00;103580.44;5208746;28;20408;-63
2022/01/23 05:50:35;;;;;;;44.78;40.10;;;;;;;3.54;100.00;103583.66;5208802;28;20033;-62
2022/01/23 05:53:06;;;;;;;46.00;41.55;;;;;;;3.59;100.00;103583.25;5208455;28;20075;-62
2022/01/23 05:55:36;;;;;;;43.55;39.38;;;;;;;3.58;100.00;103586.91;5226447;28;20091;-62
2022/01/23 05:58:06;;;;;;;46.78;42.42;;;;;;;3.57;100.00;103587.88;5208730;28;20064;-60
2022/01/23 06:00:37;;;;;;;48.33;43.30;;;;;;;3.31;100.00;103542.22;5208869;28;20039;-62
2022/01/23 06:03:07;;;;;;;41.90;37.90;;;;;;;3.55;100.00;103588.03;5225027;28;20116;-62
2022/01/23 06:05:38;;;;;;;42.80;38.80;;;;;;;3.43;100.00;103561.63;5208502;28;20037;-62
2022/01/23 06:08:09;;;;;;;47.03;42.08;;;;;;;3.52;100.00;103576.78;5208612;28;20033;-62
2022/01/23 06:11:13;;;;;;;48.78;43.65;;;;;;;3.45;100.00;103573.00;5208189;28;20131;-61
2022/01/23 06:13:37;;;;;;;44.83;40.63;;;;;;;3.51;100.00;103575.94;5222111;28;20044;-61
2022/01/23 06:16:07;;;;;;;46.55;42.67;;;;;;;3.48;100.00;103586.06;5208574;28;20045;-63
2022/01/23 06:18:40;;;;;;;51.45;43.33;;;;;;;3.49;100.00;103585.06;5208685;28;20029;-61
2022/01/23 06:21:13;;;;;;;49.17;43.83;;;;;;;3.48;100.00;103592.25;5208543;28;20484;-62
2022/01/23 06:23:44;;;;;;;57.88;46.58;;;;;;;3.49;100.00;103587.75;5208527;28;20095;-59
2022/01/23 06:26:17;;;;;;;46.65;42.13;;;;;;;3.49;100.00;103585.06;5208450;28;20404;-62
2022/01/23 06:28:57;;;;;;;50.88;45.65;;;;;;;3.36;100.00;103570.19;5208526;28;20037;-62
2022/01/23 06:31:28;;;;;;;52.55;46.80;;;;;;;3.44;100.00;103579.34;5208641;28;20033;-62
2022/01/23 06:34:00;;;;;;;46.90;42.25;;;;;;;3.48;100.00;103591.41;5226148;28;20500;-62
2022/01/23 06:36:31;;;;;;;50.15;44.95;;;;;;;3.50;100.00;103594.78;5226620;28;20029;-60
2022/01/23 06:39:04;;;;;;;50.47;41.47;;;;;;;3.51;100.00;103599.97;5208459;28;20044;-62
2022/01/23 06:41:35;;;;;;;47.97;43.05;;;;;;;3.50;100.00;103605.47;5208654;28;20338;-61
2022/01/23 06:44:06;;;;;;;53.08;47.97;;;;;;;3.51;100.00;103588.44;5208468;28;20029;-62
2022/01/23 06:46:41;;;;;;;45.80;41.60;;;;;;;3.52;100.00;103599.00;5208828;28;20048;-62
2022/01/23 06:49:11;;;;;;;45.00;40.83;;;;;;;3.38;100.00;103597.63;5208641;28;20132;-60
2022/01/23 06:51:42;;;;;;;50.42;45.45;;;;;;;3.51;100.00;103601.81;5211766;28;20129;-61
2022/01/23 06:54:13;;;;;;;48.60;43.53;;;;;;;3.51;100.00;103607.16;5212298;28;20051;-62
2022/01/23 06:56:44;;;;;;;48.65;43.72;;;;;;;3.50;100.00;103618.81;5212069;28;20095;-61
2022/01/23 06:59:14;;;;;;;50.60;43.78;;;;;;;3.27;100.00;103589.72;5212239;28;20039;-61
2022/01/23 07:01:45;;;;;;;53.38;47.75;;;;;;;3.51;100.00;103628.53;5212009;28;20471;-62
2022/01/23 07:04:15;;;;;;;63.97;46.97;;;;;;;3.49;100.00;103625.16;5229999;28;20037;-63
2022/01/23 07:06:46;;;;;;;48.15;43.28;;;;;;;3.52;100.00;103633.72;5212009;28;20417;-62
2022/01/23 07:09:16;;;;;;;51.08;45.92;;;;;;;3.52;100.00;103633.72;5211680;28;20029;-65
2022/01/23 07:11:47;;;;;;;48.53;43.85;;;;;;;3.50;100.00;103643.69;5211580;28;20063;-60
2022/01/23 07:14:17;;;;;;;51.15;46.47;;;;;;;3.42;100.00;103626.72;5211310;28;20489;-62
2022/01/23 07:16:48;;;;;;;54.67;45.03;;;;;;;3.50;100.00;103634.84;5211814;28;20040;-63
2022/01/23 07:19:18;;;;;;;49.33;44.40;;;;;;;3.49;100.00;103639.34;5211460;28;20041;-63
2022/01/23 07:21:49;;;;;;;49.42;44.83;;;;;;;3.55;100.00;103645.97;5211403;28;20056;-63
2022/01/23 07:24:19;;;;;;;46.00;41.35;;;;;;;3.43;100.00;103631.91;5211494;28;20485;-62
2022/01/23 07:26:50;;;;;;;48.70;44.15;;;;;;;3.52;100.00;103647.06;5229678;28;20136;-63
2022/01/23 07:29:20;;;;;;;51.90;45.67;;;;;;;3.50;100.00;103653.53;5211555;28;20041;-62
2022/01/23 07:34:27;;;;;;;53.30;48.22;;;;;;;3.30;100.00;103618.00;5229414;28;20036;-62
2022/01/23 07:36:58;;;;;;;52.22;47.13;;;;;;;3.51;100.00;103650.72;5211320;28;20086;-63
2022/01/23 07:39:28;;;;;;;54.33;48.47;;;;;;;3.50;100.00;103649.03;5211359;28;20477;-61
2022/01/23 07:41:59;;;;;;;48.17;43.67;;;;;;;3.29;100.00;103613.63;5221841;28;20032;-62
2022/01/23 07:44:29;;;;;;;47.88;42.30;;;;;;;3.50;100.00;103648.19;5211425;28;20044;-62
2022/01/23 07:46:59;;;;;;;51.53;46.25;;;;;;;3.49;100.00;103641.16;5198290;28;20489;-61
2022/01/23 07:49:30;;;;;;;53.25;48.10;;;;;;;3.51;100.00;103657.91;5191081;28;20034;-62
2022/01/23 07:52:04;;;;;;;49.05;44.17;;;;;;;3.50;100.00;103654.38;5190726;28;20041;-62
2022/01/23 07:54:34;;;;;;;54.33;48.85;;;;;;;3.51;100.00;103656.06;5190317;28;20034;-62
2022/01/23 07:57:05;;;;;;;49.67;45.15;;;;;;;3.52;100.00;103663.09;5190277;28;20378;-62
2022/01/23 07:59:35;;;;;;;52.40;47.10;;;;;;;3.50;100.00;103670.41;5190332;28;20077;-60
2022/01/23 08:02:06;;;;;;;50.25;45.15;;;;;;;3.49;100.00;103663.38;5190031;28;20025;-61
2022/01/23 08:04:36;;;;;;;49.35;44.30;;;;;;;3.52;100.00;103657.75;5189854;28;20400;-62
2022/01/23 08:07:19;;;;;;;51.90;46.78;;;;;;;3.55;100.00;103673.50;5206218;28;20451;-62
2022/01/23 08:09:50;;;;;;;48.63;44.10;;;;;;;3.57;100.00;103668.88;5189985;28;20025;-61
2022/01/23 08:12:21;;;;;;;51.25;45.47;;;;;;;3.60;100.00;103665.09;5189358;28;20045;-62
2022/01/23 08:14:53;;;;;;;53.33;48.10;;;;;;;3.42;100.00;103646.25;5189475;28;20360;-62
2022/01/23 08:17:24;;;;;;;53.10;48.00;;;;;;;3.64;100.00;103671.84;5189605;28;20414;-62
2022/01/23 08:19:57;;;;;;;52.88;47.25;;;;;;;3.62;100.00;103673.81;5189610;28;20504;-62
2022/01/23 08:22:29;;;;;;;47.15;42.63;;;;;;;3.63;100.00;103680.84;5189225;28;20088;-62
2022/01/23 08:25:02;;;;;;;49.42;44.90;;;;;;;3.49;100.00;103652.69;5188931;28;20041;-62
2022/01/23 08:27:33;;;;;;;53.05;46.72;;;;;;;3.65;100.00;103674.38;5206340;22;20560;-58
2022/01/23 08:30:04;;;;;;;52.75;47.58;;;;;;;3.52;100.00;103648.91;5229720;28;20618;-58
2022/01/23 08:32:34;;;;;;;54.38;48.47;;;;;;;3.71;100.00;103683.66;5209056;28;20052;-59
2022/01/23 08:35:06;;;;;;;52.83;47.90;;;;;;;3.75;100.00;103679.72;5209122;28;20558;-59
2022/01/23 08:37:38;;;;;;;48.50;43.78;;;;;;;3.76;100.00;103676.03;5209596;28;20041;-59
2022/01/23 08:40:19;;;;;;;50.83;45.57;;;;;;;3.50;100.00;103633.03;5410028;22;20013;-81
2022/01/23 08:43:01;;;;;;;47.50;42.97;;;;;;;3.52;100.00;103640.88;5246663;28;20048;-81
2022/01/23 08:45:31;;;;;;;53.95;48.42;;;;;;;3.57;100.00;103644.00;5253358;28;20036;-81
2022/01/23 08:48:01;;;;;;;58.65;46.45;;;;;;;3.57;100.00;103644.84;5253827;28;20032;-80
2022/01/23 08:50:32;;;;;;;49.60;44.25;;;;;;;3.63;100.00;103664.81;5255404;28;20420;-82
2022/01/23 08:53:03;;;;;;;61.72;47.50;;;;;;;3.82;100.00;103704.88;5254871;28;20086;-81
2022/01/23 08:55:33;;;;;;;46.88;42.30;;;;;;;3.83;100.00;103682.50;5239502;28;20040;-83
2022/01/23 08:58:04;;;;;;;51.08;45.80;;;;;;;3.27;100.00;103592.41;5256346;28;20032;-82
2022/01/23 09:00:34;;;;;;;51.50;44.95;;;;;;;3.85;100.00;103691.22;5239690;28;20449;-81
2022/01/23 09:03:05;;;;;;;57.03;50.90;;;;;;;3.86;100.00;103689.41;5255750;28;20032;-82
2022/01/23 09:05:36;;;;;;;53.30;48.00;;;;;;;3.88;100.00;103682.94;5256025;28;20494;-81
2022/01/23 09:08:06;;;;;;;49.90;45.05;;;;;;;3.43;100.00;103620.38;5256955;28;20043;-83
2022/01/23 09:10:53;;;;;;;50.88;45.65;;;;;;;3.82;100.00;103683.50;5243101;28;20032;-83
2022/01/23 09:16:09;;;;;;;56.40;50.92;;;;;;;3.89;100.00;103697.97;5273495;28;20067;-84
2022/01/23 09:18:39;;;;;;;55.95;48.15;;;;;;;3.63;100.00;103648.78;5256062;28;20025;-83
2022/01/23 09:21:10;;;;;;;50.70;45.85;;;;;;;3.93;100.00;103690.53;5247256;28;20037;-83
2022/01/23 09:23:41;;;;;;;53.53;47.97;;;;;;;3.90;100.00;103682.78;5256672;28;20441;-82
2022/01/23 09:26:15;;;;;;;51.28;46.53;;;;;;;3.91;100.00;103701.34;5244775;28;20025;-81
2022/01/23 09:28:46;;;;;;;53.58;46.95;;;;;;;3.34;100.00;103601.53;5235320;28;20449;-83
2022/01/23 09:31:27;;;;;;;56.42;49.78;;;;;;;3.91;100.00;103682.66;5235167;28;20072;-82
2022/01/23 09:33:57;;;;;;;53.58;48.38;;;;;;;3.78;100.00;103665.19;5217583;28;20048;-82
2022/01/23 09:36:28;;;;;;;54.80;49.08;;;;;;;4.04;100.00;103703.75;5235190;28;20029;-80
2022/01/23 09:38:59;;;;;;;53.00;48.03;;;;;;;3.97;100.00;103695.44;5235248;28;20040;-81
2022/01/23 09:41:31;;;;;;;48.70;43.70;;;;;;;4.07;100.00;103706.94;5232490;28;20082;-82
2022/01/23 09:44:02;;;;;;;51.63;46.08;;;;;;;4.04;100.00;103695.72;5231461;28;20037;-83
2022/01/23 09:46:33;;;;;;;49.67;45.05;;;;;;;4.11;100.00;103706.66;5233695;28;20052;-82
2022/01/23 09:49:04;;;;;;;55.00;49.97;;;;;;;3.87;100.00;103675.03;5215151;28;20083;-83
2022/01/23 09:51:39;;;;;;;52.67;47.00;;;;;;;4.15;100.00;103702.72;5234768;28;20039;-83
2022/01/23 09:54:11;;;;;;;51.20;46.45;;;;;;;4.11;100.00;103695.97;5217395;28;20051;-82
2022/01/23 09:56:43;;;;;;;49.88;44.90;;;;;;;4.18;100.00;103715.81;5237694;28;20037;-83
2022/01/23 09:59:15;;;;;;;55.40;49.75;;;;;;;4.20;100.00;103703.97;5238792;28;20055;-82
2022/01/23 10:01:52;;;;;;;61.55;49.58;;;;;;;3.98;100.00;103670.41;5239654;28;20033;-82
2022/01/23 10:04:25;;;;;;;53.17;47.92;;;;;;;4.17;100.00;103696.25;5218237;28;20040;-83
2022/01/23 10:06:56;;;;;;;48.90;44.25;;;;;;;4.27;100.00;103712.28;5235765;28;20127;-82
2022/01/23 10:09:28;;;;;;;47.65;43.40;;;;;;;4.09;100.00;103680.06;5234193;28;20059;-82
2022/01/23 10:11:58;;;;;;;53.08;47.47;;;;;;;4.29;100.00;103713.81;5233163;28;20391;-81
2022/01/23 10:14:28;;;;;;;46.72;42.50;;;;;;;4.32;100.00;103700.16;5231676;28;20025;-82
2022/01/23 10:16:59;;;;;;;54.10;49.00;;;;;;;4.17;100.00;103682.03;5216634;28;20052;-82
2022/01/23 10:19:30;;;;;;;48.83;43.70;;;;;;;4.05;100.00;103652.75;5236207;28;20040;-82
2022/01/23 10:22:03;;;;;;;49.42;44.38;;;;;;;4.29;100.00;103695.09;5217342;28;20021;-83
2022/01/23 10:24:33;;;;;;;49.22;44.03;;;;;;;4.40;100.00;103710.13;5236821;28;20037;-82
2022/01/23 10:27:04;;;;;;;50.33;44.95;;;;;;;4.36;100.00;103700.69;5238243;28;20041;-83
2022/01/23 10:29:37;;;;;;;45.85;41.25;;;;;;;4.39;100.00;103705.75;5236507;28;20033;-81
2022/01/23 10:32:27;;;;;;;50.13;45.40;;;;;;;4.45;100.00;103704.34;5237579;28;20036;-83
2022/01/23 10:35:00;;;;;;;51.60;45.83;;;;;;;4.14;100.00;103666.25;5219172;28;20064;-82
2022/01/23 10:37:40;;;;;;;47.45;42.50;;;;;;;4.47;100.00;103703.19;5218937;28;20036;-82
2022/01/23 10:40:25;;;;;;;42.70;38.80;;;;;;;3.99;100.00;103633.81;5235421;28;20033;-82
2022/01/23 10:48:35;;;;;;;48.70;44.15;;;;;;;4.56;100.00;103707.69;5228994;28;20413;-61
2022/01/23 10:54:21;;;;;;;48.25;43.63;;;;;;;4.61;100.00;103705.41;5229339;28;20095;-60
2022/01/23 10:57:08;;;;;;;49.67;44.72;;;;;;;4.62;100.00;103699.03;5211367;28;20079;-60
2022/01/23 11:02:24;;;;;;;52.53;44.17;;;;;;;4.50;100.00;103675.31;5600896;22;20052;-83
2022/01/23 11:05:04;;;;;;;49.00;44.17;;;;;;;4.64;100.00;103694.38;5270004;28;20456;-82
2022/01/23 11:07:40;;;;;;;43.33;39.25;;;;;;;4.70;100.00;103701.84;5248604;28;20104;-82
2022/01/23 11:10:21;;;;;;;48.63;43.72;;;;;;;4.74;100.00;103695.19;5256530;28;20451;-83
2022/01/23 11:18:16;;;;;;;48.03;43.38;;;;;;;4.80;100.00;103688.41;5245403;28;20048;-83
2022/01/23 11:20:48;;;;;;;50.88;45.80;;;;;;;4.84;100.00;103684.44;5247937;28;20037;-83
2022/01/23 11:23:23;;;;;;;44.92;40.47;;;;;;;4.83;100.00;103681.91;5247147;28;20089;-83
2022/01/23 11:25:56;;;;;;;51.45;41.38;;;;;;;4.88;100.00;103685.00;5223679;28;20033;-83
2022/01/23 11:28:43;;;;;;;48.22;42.45;;;;;;;4.85;100.00;103679.94;5218158;28;20220;-83
2022/01/23 11:31:18;;;;;;;40.08;35.80;;;;;;;4.71;100.00;103647.31;5217046;28;20036;-84
2022/01/23 11:33:50;;;;;;;50.63;45.60;;;;;;;4.87;100.00;103673.44;5234619;28;20029;-83
2022/01/23 11:36:21;;;;;;;47.20;42.38;;;;;;;4.95;100.00;103676.19;5215531;28;20101;-83
2022/01/23 11:38:57;;;;;;;45.45;40.88;;;;;;;4.98;100.00;103672.38;5215978;28;20033;-83
2022/01/23 11:50:46;;;;;;;42.97;38.30;;;;;;;5.11;100.00;103653.28;5232889;28;20056;-82
2022/01/23 11:59:10;;;;;;;42.95;38.88;;;;;;;5.18;100.00;103657.88;5233788;28;20036;-82
2022/01/23 12:01:43;;;;;;;44.05;39.80;;;;;;;5.15;100.00;103642.13;5216455;28;20041;-83
2022/01/23 12:04:28;;;;;;;42.40;38.17;;;;;;;5.23;100.00;103652.06;5217541;28;20414;-83
2022/01/23 12:07:11;;;;;;;45.15;41.05;;;;;;;5.24;100.00;103646.53;5253007;28;20425;-83
2022/01/23 12:10:03;;;;;;;42.33;37.88;;;;;;;5.14;100.00;103635.06;5236670;28;20032;-82
2022/01/23 12:12:42;;;;;;;42.30;38.25;;;;;;;5.24;100.00;103638.50;5234953;28;20413;-83
2022/01/23 12:18:29;;;;;;;42.60;38.60;;;;;;;5.26;100.00;103644.56;5253423;28;20081;-81
2022/01/23 12:20:59;;;;;;;50.63;39.08;;;;;;;5.10;100.00;103604.22;5235236;28;20115;-82
2022/01/23 12:23:59;;;;;;;44.50;40.47;;;;;;;5.35;100.00;103634.75;5253305;28;20143;-83
2022/01/23 12:26:30;;;;;;;41.20;37.22;;;;;;;5.33;100.00;103629.56;5253317;28;20124;-81
2022/01/23 12:29:23;;;;;;;43.88;39.60;;;;;;;5.15;100.00;103585.03;5253895;28;20052;-82
2022/01/23 12:32:30;;;;;;;43.05;38.72;;;;;;;5.48;100.00;103634.38;5235490;28;20060;-82
2022/01/23 12:35:05;;;;;;;39.75;36.00;;;;;;;5.51;100.00;103632.22;5149276;28;20037;-81
2022/01/23 12:38:02;;;;;;;42.60;38.10;;;;;;;5.54;100.00;103625.69;5238899;28;20127;-82
2022/01/23 12:40:39;;;;;;;45.25;40.80;;;;;;;5.51;100.00;103615.28;5248878;28;20424;-82
2022/01/23 12:43:09;;;;;;;39.72;35.80;;;;;;;5.55;100.00;103614.84;5235044;28;20033;-81
2022/01/23 12:45:52;;;;;;;41.70;37.58;;;;;;;5.54;100.00;103607.78;5235419;28;20092;-81
2022/01/23 12:48:26;;;;;;;39.78;35.85;;;;;;;5.60;100.00;103606.31;5251916;28;20040;-82
2022/01/23 12:50:56;;;;;;;40.60;36.33;;;;;;;5.65;100.00;103604.03;5233752;28;20119;-81
2022/01/23 12:53:37;;;;;;;42.42;38.45;;;;;;;5.67;100.00;103615.44;5251583;28;20454;-81
2022/01/23 12:56:13;;;;;;;39.92;35.83;;;;;;;5.69;100.00;103608.09;5251218;28;20067;-82
2022/01/23 12:59:11;;;;;;;43.67;39.05;;;;;;;5.73;100.00;103598.72;5250501;28;20045;-82
2022/01/23 13:01:44;;;;;;;45.30;40.67;;;;;;;5.64;100.00;103578.22;5250247;28;20639;-81
2022/01/23 13:04:32;;;;;;;40.97;36.60;;;;;;;5.68;100.00;103580.44;5232747;28;20131;-81
2022/01/23 13:07:09;;;;;;;42.13;37.92;;;;;;;5.79;100.00;103600.75;5232741;28;20032;-82
2022/01/23 13:12:49;;;;;;;39.47;35.60;;;;;;;5.78;100.00;103586.50;5291248;28;20297;-62
2022/01/23 13:30:22;;;;;;;39.63;35.70;;;;;;;5.85;100.00;103577.84;5285744;28;20092;-61
2022/01/23 13:33:01;;;;;;;42.90;38.33;;;;;;;5.88;100.00;103586.41;5266459;28;20035;-61
2022/01/23 13:35:38;;;;;;;39.97;35.83;;;;;;;5.90;100.00;103581.78;5266485;28;20051;-60
2022/01/23 13:38:14;;;;;;;43.35;39.15;;;;;;;5.93;100.00;103575.25;5268374;28;20028;-62
2022/01/23 13:40:46;;;;;;;81.03;74.72;;;;;;;5.97;100.00;103576.63;5266327;28;20036;-61
2022/01/23 13:51:59;;;;;;;40.08;36.35;;;;;;;5.86;100.00;103569.63;5285323;28;20039;-61
2022/01/23 14:02:38;;;;;;;41.13;37.10;;;;;;;5.93;100.00;103565.38;5284508;28;20506;-61
2022/01/23 14:05:14;;;;;;;40.38;36.15;;;;;;;5.96;100.00;103572.25;5266311;28;20028;-61
2022/01/23 14:07:50;;;;;;;38.28;34.55;;;;;;;5.94;100.00;103567.03;5266454;28;20372;-61
2022/01/23 14:10:21;;;;;;;40.80;37.03;;;;;;;5.91;100.00;103562.00;5266756;28;20507;-62
2022/01/23 14:12:54;;;;;;;36.50;32.75;;;;;;;5.89;100.00;103558.63;5266460;28;20024;-61
2022/01/23 14:15:30;;;;;;;38.78;35.13;;;;;;;5.87;100.00;103554.38;5266236;28;20058;-61
2022/01/23 14:18:11;;;;;;;35.95;32.90;;;;;;;5.89;100.00;103558.63;5266487;28;20022;-62
2022/01/23 14:20:44;;;;;;;36.90;33.55;;;;;;;5.85;100.00;103551.88;5255346;28;20028;-64
2022/01/23 14:23:18;;;;;;;32.83;29.23;;;;;;;5.82;100.00;103562.91;5252502;28;20012;-62
2022/01/23 14:25:59;;;;;;;36.35;32.95;;;;;;;5.78;100.00;103557.00;5252843;28;20496;-62
2022/01/23 14:28:46;;;;;;;35.25;32.03;;;;;;;5.74;100.00;103549.47;5250901;22;20025;-58
2022/01/23 14:31:21;;;;;;;32.10;28.83;;;;;;;5.73;100.00;103561.19;5210776;28;20020;-61
2022/01/23 14:33:57;;;;;;;36.28;32.45;;;;;;;5.71;100.00;103561.34;5210769;28;20123;-62
2022/01/23 14:36:30;;;;;;;36.20;32.85;;;;;;;5.73;100.00;103563.88;5210971;28;20021;-61
2022/01/23 14:39:04;;;;;;;37.50;33.92;;;;;;;5.73;100.00;103562.03;5210977;28;20086;-60
2022/01/23 14:41:37;;;;;;;36.00;32.38;;;;;;;5.71;100.00;103561.34;5210749;28;20071;-62
2022/01/23 14:44:35;;;;;;;37.65;32.42;;;;;;;5.72;100.00;103557.69;5210674;28;20029;-61
2022/01/23 14:47:07;;;;;;;36.90;33.47;;;;;;;5.71;100.00;103574.75;5208166;28;20040;-62
2022/01/23 14:49:41;;;;;;;39.03;35.30;;;;;;;5.69;100.00;103573.22;5228553;28;20112;-62
2022/01/23 14:52:13;;;;;;;38.20;34.25;;;;;;;5.63;100.00;103573.84;5210523;28;20488;-60
2022/01/23 14:54:44;;;;;;;38.45;34.28;;;;;;;5.60;100.00;103563.44;5210542;28;20048;-60
2022/01/23 14:57:16;;;;;;;37.58;34.13;;;;;;;5.60;100.00;103568.81;5210518;28;20145;-62
2022/01/23 14:59:47;;;;;;;36.67;32.90;;;;;;;5.57;100.00;103561.91;5210493;28;20032;-62
2022/01/23 15:02:17;;;;;;;37.80;33.95;;;;;;;5.55;100.00;103561.22;5228505;28;20468;-63
2022/01/23 15:04:48;;;;;;;34.53;30.33;;;;;;;5.54;100.00;103566.75;5210154;28;20025;-61
2022/01/23 15:07:19;;;;;;;34.97;31.60;;;;;;;5.49;100.00;103567.19;5210125;28;20036;-59
2022/01/23 15:09:51;;;;;;;32.45;29.70;;;;;;;5.36;100.00;103562.25;5209873;28;20528;-61
2022/01/23 15:12:21;;;;;;;34.40;31.17;;;;;;;5.45;100.00;103568.53;5210071;28;20032;-61